Phillipston, Massachusetts
Current Conditions -  °F | °C
As of 2:52 PM on Monday 26 Jan 2015 (Local Time) from KORE Reporting Station
Overcast Overcast  
Wind Chill:   Ceiling: 2500
Heat Index: 20°   Visibility: 10mi
Dew Point:   Wind: 10mph
Humidity: 62%   Direction: 40°NE
Pressure: 30.02"   Gusts: NA
Location:  42.617°N, 72.1846°W
Report Text: KORE 261952Z AUTO 04009KT 10SM OVC025 M07/M13 A3002 RMK AO2 SLP178 T10671128
Loading
Personal Weather Stations






























Interactive Weather Map New forecast layout! Learn more

10-Day Weather Forecast

Advertisements
Track Severe Weather on mobile